sensor_id;sensor_type;location;lat;lon;timestamp;P1;durP1;ratioP1;P2;durP2;ratioP2
9712;SDS011;4895;50.926;6.870;2023-03-14T00:01:14;10.40;;;3.17;;
9712;SDS011;4895;50.926;6.870;2023-03-14T00:03:41;9.60;;;2.10;;
9712;SDS011;4895;50.926;6.870;2023-03-14T00:06:07;5.60;;;1.73;;
9712;SDS011;4895;50.926;6.870;2023-03-14T00:08:33;9.33;;;2.13;;
9712;SDS011;4895;50.926;6.870;2023-03-14T00:11:03;7.70;;;2.43;;
9712;SDS011;4895;50.926;6.870;2023-03-14T00:13:32;10.77;;;2.13;;
9712;SDS011;4895;50.926;6.870;2023-03-14T00:16:11;5.13;;;1.93;;
9712;SDS011;4895;50.926;6.870;2023-03-14T00:18:37;6.10;;;2.00;;
9712;SDS011;4895;50.926;6.870;2023-03-14T00:21:03;10.60;;;2.77;;
9712;SDS011;4895;50.926;6.870;2023-03-14T00:23:29;6.47;;;2.40;;
9712;SDS011;4895;50.926;6.870;2023-03-14T00:25:59;8.67;;;2.30;;
9712;SDS011;4895;50.926;6.870;2023-03-14T00:28:25;10.17;;;2.27;;
9712;SDS011;4895;50.926;6.870;2023-03-14T00:30:51;7.23;;;2.30;;
9712;SDS011;4895;50.926;6.870;2023-03-14T00:33:16;6.33;;;1.97;;
9712;SDS011;4895;50.926;6.870;2023-03-14T00:35:42;10.00;;;2.00;;
9712;SDS011;4895;50.926;6.870;2023-03-14T00:38:07;7.10;;;2.37;;
9712;SDS011;4895;50.926;6.870;2023-03-14T00:40:32;15.43;;;2.60;;
9712;SDS011;4895;50.926;6.870;2023-03-14T00:42:58;8.23;;;2.00;;
9712;SDS011;4895;50.926;6.870;2023-03-14T00:45:23;13.07;;;2.10;;
9712;SDS011;4895;50.926;6.870;2023-03-14T00:47:48;10.93;;;2.17;;
9712;SDS011;4895;50.926;6.870;2023-03-14T00:50:13;6.77;;;2.10;;
9712;SDS011;4895;50.926;6.870;2023-03-14T00:52:39;8.13;;;2.43;;
9712;SDS011;4895;50.926;6.870;2023-03-14T00:55:04;8.60;;;2.20;;
9712;SDS011;4895;50.926;6.870;2023-03-14T00:57:30;10.97;;;2.73;;
9712;SDS011;4895;50.926;6.870;2023-03-14T00:59:55;18.40;;;3.07;;
9712;SDS011;4895;50.926;6.870;2023-03-14T01:02:20;10.07;;;2.07;;
9712;SDS011;4895;50.926;6.870;2023-03-14T01:04:49;7.27;;;2.10;;
9712;SDS011;4895;50.926;6.870;2023-03-14T01:07:14;9.17;;;2.17;;
9712;SDS011;4895;50.926;6.870;2023-03-14T01:09:40;6.23;;;1.80;;
9712;SDS011;4895;50.926;6.870;2023-03-14T01:12:05;6.20;;;2.30;;
9712;SDS011;4895;50.926;6.870;2023-03-14T01:14:31;8.90;;;2.73;;
9712;SDS011;4895;50.926;6.870;2023-03-14T01:16:56;5.90;;;2.07;;
9712;SDS011;4895;50.926;6.870;2023-03-14T01:19:25;11.60;;;1.90;;
9712;SDS011;4895;50.926;6.870;2023-03-14T01:21:54;10.73;;;2.10;;
9712;SDS011;4895;50.926;6.870;2023-03-14T01:24:19;10.63;;;2.00;;
9712;SDS011;4895;50.926;6.870;2023-03-14T01:26:45;9.50;;;1.93;;
9712;SDS011;4895;50.926;6.870;2023-03-14T01:29:11;6.90;;;1.97;;
9712;SDS011;4895;50.926;6.870;2023-03-14T01:31:36;7.03;;;1.80;;
9712;SDS011;4895;50.926;6.870;2023-03-14T01:34:01;15.40;;;2.57;;
9712;SDS011;4895;50.926;6.870;2023-03-14T01:36:26;6.33;;;1.57;;
9712;SDS011;4895;50.926;6.870;2023-03-14T01:38:52;5.47;;;1.50;;
9712;SDS011;4895;50.926;6.870;2023-03-14T01:41:21;4.63;;;1.40;;
9712;SDS011;4895;50.926;6.870;2023-03-14T01:43:49;6.93;;;1.80;;
9712;SDS011;4895;50.926;6.870;2023-03-14T01:51:17;5.83;;;1.30;;
9712;SDS011;4895;50.926;6.870;2023-03-14T01:53:49;6.37;;;1.73;;
9712;SDS011;4895;50.926;6.870;2023-03-14T01:56:16;4.40;;;1.50;;
9712;SDS011;4895;50.926;6.870;2023-03-14T01:58:42;7.30;;;1.13;;
9712;SDS011;4895;50.926;6.870;2023-03-14T02:01:10;5.30;;;1.30;;
9712;SDS011;4895;50.926;6.870;2023-03-14T02:03:38;4.67;;;1.30;;
9712;SDS011;4895;50.926;6.870;2023-03-14T02:06:09;2.90;;;1.00;;
9712;SDS011;4895;50.926;6.870;2023-03-14T02:08:36;6.10;;;1.63;;
9712;SDS011;4895;50.926;6.870;2023-03-14T02:11:02;4.40;;;1.00;;
9712;SDS011;4895;50.926;6.870;2023-03-14T02:13:28;6.00;;;1.10;;
9712;SDS011;4895;50.926;6.870;2023-03-14T02:15:54;6.80;;;1.77;;
9712;SDS011;4895;50.926;6.870;2023-03-14T02:18:19;3.37;;;1.23;;
9712;SDS011;4895;50.926;6.870;2023-03-14T02:23:28;2.03;;;1.03;;
9712;SDS011;4895;50.926;6.870;2023-03-14T02:26:01;4.33;;;0.90;;
9712;SDS011;4895;50.926;6.870;2023-03-14T02:28:31;2.53;;;1.13;;
9712;SDS011;4895;50.926;6.870;2023-03-14T02:30:56;5.90;;;1.43;;
9712;SDS011;4895;50.926;6.870;2023-03-14T02:33:21;4.93;;;1.17;;
9712;SDS011;4895;50.926;6.870;2023-03-14T02:40:46;12.40;;;2.60;;
9712;SDS011;4895;50.926;6.870;2023-03-14T02:43:12;4.40;;;2.03;;
9712;SDS011;4895;50.926;6.870;2023-03-14T02:45:46;7.33;;;1.90;;
9712;SDS011;4895;50.926;6.870;2023-03-14T02:48:17;6.27;;;2.20;;
9712;SDS011;4895;50.926;6.870;2023-03-14T02:50:50;3.07;;;1.17;;
9712;SDS011;4895;50.926;6.870;2023-03-14T02:53:17;9.10;;;1.83;;
9712;SDS011;4895;50.926;6.870;2023-03-14T02:55:44;9.17;;;1.40;;
9712;SDS011;4895;50.926;6.870;2023-03-14T02:58:11;11.27;;;1.47;;
9712;SDS011;4895;50.926;6.870;2023-03-14T03:00:36;7.93;;;2.13;;
9712;SDS011;4895;50.926;6.870;2023-03-14T03:03:01;8.23;;;1.90;;
9712;SDS011;4895;50.926;6.870;2023-03-14T03:05:27;5.27;;;1.47;;
9712;SDS011;4895;50.926;6.870;2023-03-14T03:07:52;6.07;;;1.87;;
9712;SDS011;4895;50.926;6.870;2023-03-14T03:10:17;6.83;;;2.00;;
9712;SDS011;4895;50.926;6.870;2023-03-14T03:12:43;10.03;;;1.87;;
9712;SDS011;4895;50.926;6.870;2023-03-14T03:15:09;6.10;;;1.67;;
9712;SDS011;4895;50.926;6.870;2023-03-14T03:17:34;16.03;;;2.80;;
9712;SDS011;4895;50.926;6.870;2023-03-14T03:20:00;6.57;;;2.27;;
9712;SDS011;4895;50.926;6.870;2023-03-14T03:22:25;13.47;;;2.73;;
9712;SDS011;4895;50.926;6.870;2023-03-14T03:24:50;13.93;;;2.93;;
9712;SDS011;4895;50.926;6.870;2023-03-14T03:27:15;12.57;;;3.67;;
9712;SDS011;4895;50.926;6.870;2023-03-14T03:29:41;10.70;;;2.70;;
9712;SDS011;4895;50.926;6.870;2023-03-14T03:32:06;8.73;;;3.17;;
9712;SDS011;4895;50.926;6.870;2023-03-14T03:34:31;11.37;;;3.53;;
9712;SDS011;4895;50.926;6.870;2023-03-14T03:36:57;11.27;;;2.83;;
9712;SDS011;4895;50.926;6.870;2023-03-14T03:39:22;10.47;;;3.30;;
9712;SDS011;4895;50.926;6.870;2023-03-14T03:41:47;15.87;;;3.57;;
9712;SDS011;4895;50.926;6.870;2023-03-14T03:44:13;8.33;;;2.40;;
9712;SDS011;4895;50.926;6.870;2023-03-14T03:46:38;14.17;;;3.07;;
9712;SDS011;4895;50.926;6.870;2023-03-14T03:49:03;8.87;;;2.40;;
9712;SDS011;4895;50.926;6.870;2023-03-14T03:51:29;9.43;;;3.10;;
9712;SDS011;4895;50.926;6.870;2023-03-14T03:53:55;12.93;;;2.63;;
9712;SDS011;4895;50.926;6.870;2023-03-14T03:56:21;12.33;;;2.73;;
9712;SDS011;4895;50.926;6.870;2023-03-14T03:58:46;7.93;;;2.10;;
9712;SDS011;4895;50.926;6.870;2023-03-14T04:01:11;11.27;;;2.00;;
9712;SDS011;4895;50.926;6.870;2023-03-14T04:03:37;12.60;;;2.00;;
9712;SDS011;4895;50.926;6.870;2023-03-14T04:06:06;6.03;;;1.70;;
9712;SDS011;4895;50.926;6.870;2023-03-14T04:08:35;5.93;;;2.13;;
9712;SDS011;4895;50.926;6.870;2023-03-14T04:11:02;8.40;;;2.53;;
9712;SDS011;4895;50.926;6.870;2023-03-14T04:13:27;14.67;;;2.10;;
9712;SDS011;4895;50.926;6.870;2023-03-14T04:15:53;13.30;;;3.00;;
9712;SDS011;4895;50.926;6.870;2023-03-14T04:18:19;11.00;;;1.90;;
9712;SDS011;4895;50.926;6.870;2023-03-14T04:20:45;8.47;;;2.43;;
9712;SDS011;4895;50.926;6.870;2023-03-14T04:23:11;14.90;;;3.17;;
9712;SDS011;4895;50.926;6.870;2023-03-14T04:25:36;12.97;;;3.47;;
9712;SDS011;4895;50.926;6.870;2023-03-14T04:28:01;8.20;;;3.00;;
9712;SDS011;4895;50.926;6.870;2023-03-14T04:30:28;19.20;;;3.30;;
9712;SDS011;4895;50.926;6.870;2023-03-14T04:32:54;11.87;;;2.67;;
9712;SDS011;4895;50.926;6.870;2023-03-14T04:35:19;12.93;;;2.60;;
9712;SDS011;4895;50.926;6.870;2023-03-14T04:37:44;7.27;;;2.10;;
9712;SDS011;4895;50.926;6.870;2023-03-14T04:40:13;8.10;;;1.90;;
9712;SDS011;4895;50.926;6.870;2023-03-14T04:42:39;9.40;;;2.10;;
9712;SDS011;4895;50.926;6.870;2023-03-14T04:45:05;12.83;;;2.30;;
9712;SDS011;4895;50.926;6.870;2023-03-14T04:47:31;8.53;;;1.87;;
9712;SDS011;4895;50.926;6.870;2023-03-14T04:49:56;12.83;;;1.83;;
9712;SDS011;4895;50.926;6.870;2023-03-14T04:52:21;9.93;;;1.80;;
9712;SDS011;4895;50.926;6.870;2023-03-14T04:54:46;5.47;;;2.30;;
9712;SDS011;4895;50.926;6.870;2023-03-14T04:57:12;6.73;;;1.83;;
9712;SDS011;4895;50.926;6.870;2023-03-14T04:59:37;7.43;;;1.80;;
9712;SDS011;4895;50.926;6.870;2023-03-14T05:02:02;5.73;;;1.33;;
9712;SDS011;4895;50.926;6.870;2023-03-14T05:04:28;5.57;;;2.10;;
9712;SDS011;4895;50.926;6.870;2023-03-14T05:06:54;6.70;;;1.73;;
9712;SDS011;4895;50.926;6.870;2023-03-14T05:09:19;6.30;;;1.27;;
9712;SDS011;4895;50.926;6.870;2023-03-14T05:11:44;4.43;;;1.10;;
9712;SDS011;4895;50.926;6.870;2023-03-14T05:14:10;3.90;;;1.50;;
9712;SDS011;4895;50.926;6.870;2023-03-14T05:16:35;4.77;;;1.20;;
9712;SDS011;4895;50.926;6.870;2023-03-14T05:19:00;2.40;;;1.20;;
9712;SDS011;4895;50.926;6.870;2023-03-14T05:21:26;4.37;;;1.50;;
9712;SDS011;4895;50.926;6.870;2023-03-14T05:23:52;4.20;;;1.43;;
9712;SDS011;4895;50.926;6.870;2023-03-14T05:26:17;4.83;;;1.40;;
9712;SDS011;4895;50.926;6.870;2023-03-14T05:28:42;5.50;;;1.50;;
9712;SDS011;4895;50.926;6.870;2023-03-14T05:31:08;3.23;;;1.50;;
9712;SDS011;4895;50.926;6.870;2023-03-14T05:33:34;3.60;;;1.30;;
9712;SDS011;4895;50.926;6.870;2023-03-14T05:35:59;7.90;;;1.20;;
9712;SDS011;4895;50.926;6.870;2023-03-14T05:38:25;6.13;;;1.17;;
9712;SDS011;4895;50.926;6.870;2023-03-14T05:40:50;3.00;;;1.00;;
9712;SDS011;4895;50.926;6.870;2023-03-14T05:43:15;3.03;;;0.93;;
9712;SDS011;4895;50.926;6.870;2023-03-14T05:45:41;2.50;;;1.20;;
9712;SDS011;4895;50.926;6.870;2023-03-14T05:48:07;2.90;;;1.20;;
9712;SDS011;4895;50.926;6.870;2023-03-14T05:50:32;1.67;;;1.00;;
9712;SDS011;4895;50.926;6.870;2023-03-14T05:52:58;2.97;;;1.30;;
9712;SDS011;4895;50.926;6.870;2023-03-14T05:55:23;2.77;;;1.33;;
9712;SDS011;4895;50.926;6.870;2023-03-14T05:57:48;5.80;;;1.50;;
9712;SDS011;4895;50.926;6.870;2023-03-14T06:00:14;2.70;;;1.13;;
9712;SDS011;4895;50.926;6.870;2023-03-14T06:02:39;2.83;;;1.20;;
9712;SDS011;4895;50.926;6.870;2023-03-14T06:05:05;2.03;;;1.27;;
9712;SDS011;4895;50.926;6.870;2023-03-14T06:07:31;4.10;;;1.67;;
9712;SDS011;4895;50.926;6.870;2023-03-14T06:09:57;2.70;;;1.27;;
9712;SDS011;4895;50.926;6.870;2023-03-14T06:12:23;2.43;;;1.33;;
9712;SDS011;4895;50.926;6.870;2023-03-14T06:14:49;5.60;;;1.53;;
9712;SDS011;4895;50.926;6.870;2023-03-14T06:17:14;3.53;;;1.47;;
9712;SDS011;4895;50.926;6.870;2023-03-14T06:19:40;4.10;;;1.30;;
9712;SDS011;4895;50.926;6.870;2023-03-14T06:22:05;4.87;;;1.70;;
9712;SDS011;4895;50.926;6.870;2023-03-14T06:24:30;3.57;;;1.47;;
9712;SDS011;4895;50.926;6.870;2023-03-14T06:26:55;4.67;;;1.70;;
9712;SDS011;4895;50.926;6.870;2023-03-14T06:29:21;3.53;;;1.97;;
9712;SDS011;4895;50.926;6.870;2023-03-14T06:31:46;1.77;;;1.10;;
9712;SDS011;4895;50.926;6.870;2023-03-14T06:34:11;5.03;;;0.93;;
9712;SDS011;4895;50.926;6.870;2023-03-14T06:36:37;1.30;;;0.67;;
9712;SDS011;4895;50.926;6.870;2023-03-14T06:39:02;3.33;;;0.80;;
9712;SDS011;4895;50.926;6.870;2023-03-14T06:41:27;2.67;;;1.10;;
9712;SDS011;4895;50.926;6.870;2023-03-14T06:43:53;2.70;;;0.90;;
9712;SDS011;4895;50.926;6.870;2023-03-14T06:46:18;1.10;;;0.70;;
9712;SDS011;4895;50.926;6.870;2023-03-14T06:48:43;1.60;;;0.73;;
9712;SDS011;4895;50.926;6.870;2023-03-14T06:51:09;5.13;;;0.83;;
9712;SDS011;4895;50.926;6.870;2023-03-14T06:53:34;1.70;;;0.80;;
9712;SDS011;4895;50.926;6.870;2023-03-14T06:55:59;5.43;;;0.83;;
9712;SDS011;4895;50.926;6.870;2023-03-14T06:58:25;1.30;;;0.67;;
9712;SDS011;4895;50.926;6.870;2023-03-14T07:00:52;2.03;;;0.97;;
9712;SDS011;4895;50.926;6.870;2023-03-14T07:03:17;2.07;;;0.70;;
9712;SDS011;4895;50.926;6.870;2023-03-14T07:05:43;1.20;;;0.70;;
9712;SDS011;4895;50.926;6.870;2023-03-14T07:08:08;1.53;;;0.83;;
9712;SDS011;4895;50.926;6.870;2023-03-14T07:10:34;1.30;;;0.90;;
9712;SDS011;4895;50.926;6.870;2023-03-14T07:12:59;3.43;;;0.63;;
9712;SDS011;4895;50.926;6.870;2023-03-14T07:15:24;1.20;;;0.80;;
9712;SDS011;4895;50.926;6.870;2023-03-14T07:17:50;5.33;;;0.90;;
9712;SDS011;4895;50.926;6.870;2023-03-14T07:20:15;1.97;;;0.70;;
9712;SDS011;4895;50.926;6.870;2023-03-14T07:22:41;3.00;;;0.90;;
9712;SDS011;4895;50.926;6.870;2023-03-14T07:25:06;1.20;;;0.70;;
9712;SDS011;4895;50.926;6.870;2023-03-14T07:27:34;1.00;;;0.60;;
9712;SDS011;4895;50.926;6.870;2023-03-14T07:29:59;1.00;;;0.60;;
9712;SDS011;4895;50.926;6.870;2023-03-14T07:32:24;2.13;;;0.60;;
9712;SDS011;4895;50.926;6.870;2023-03-14T07:34:50;1.13;;;0.70;;
9712;SDS011;4895;50.926;6.870;2023-03-14T07:37:15;1.10;;;0.60;;
9712;SDS011;4895;50.926;6.870;2023-03-14T07:39:41;1.00;;;0.70;;
9712;SDS011;4895;50.926;6.870;2023-03-14T07:42:06;1.10;;;0.60;;
9712;SDS011;4895;50.926;6.870;2023-03-14T07:44:32;1.23;;;0.70;;
9712;SDS011;4895;50.926;6.870;2023-03-14T07:46:57;1.63;;;0.70;;
9712;SDS011;4895;50.926;6.870;2023-03-14T07:49:23;1.23;;;0.70;;
9712;SDS011;4895;50.926;6.870;2023-03-14T07:51:48;2.03;;;0.70;;
9712;SDS011;4895;50.926;6.870;2023-03-14T07:54:13;1.43;;;0.60;;
9712;SDS011;4895;50.926;6.870;2023-03-14T07:56:39;1.30;;;0.70;;
9712;SDS011;4895;50.926;6.870;2023-03-14T07:59:04;1.03;;;0.70;;
9712;SDS011;4895;50.926;6.870;2023-03-14T08:01:29;1.00;;;0.57;;
9712;SDS011;4895;50.926;6.870;2023-03-14T08:03:54;1.67;;;0.80;;
9712;SDS011;4895;50.926;6.870;2023-03-14T08:06:20;1.40;;;0.60;;
9712;SDS011;4895;50.926;6.870;2023-03-14T08:08:45;1.13;;;0.63;;
9712;SDS011;4895;50.926;6.870;2023-03-14T08:11:10;1.20;;;0.80;;
9712;SDS011;4895;50.926;6.870;2023-03-14T08:13:36;1.10;;;0.60;;
9712;SDS011;4895;50.926;6.870;2023-03-14T08:16:02;1.50;;;0.70;;
9712;SDS011;4895;50.926;6.870;2023-03-14T08:18:28;1.30;;;0.70;;
9712;SDS011;4895;50.926;6.870;2023-03-14T08:20:53;3.50;;;0.80;;
9712;SDS011;4895;50.926;6.870;2023-03-14T08:23:18;1.30;;;0.80;;
9712;SDS011;4895;50.926;6.870;2023-03-14T08:25:44;1.00;;;0.60;;
9712;SDS011;4895;50.926;6.870;2023-03-14T08:28:09;1.43;;;0.60;;
9712;SDS011;4895;50.926;6.870;2023-03-14T08:30:34;1.30;;;0.60;;
9712;SDS011;4895;50.926;6.870;2023-03-14T08:33:00;1.07;;;0.57;;
9712;SDS011;4895;50.926;6.870;2023-03-14T08:35:25;1.00;;;0.70;;
9712;SDS011;4895;50.926;6.870;2023-03-14T08:37:51;1.20;;;0.70;;
9712;SDS011;4895;50.926;6.870;2023-03-14T08:40:17;2.70;;;0.80;;
9712;SDS011;4895;50.926;6.870;2023-03-14T08:42:42;1.30;;;0.73;;
9712;SDS011;4895;50.926;6.870;2023-03-14T08:45:09;4.90;;;0.83;;
9712;SDS011;4895;50.926;6.870;2023-03-14T08:47:37;2.53;;;0.77;;
9712;SDS011;4895;50.926;6.870;2023-03-14T08:50:03;1.20;;;0.70;;
9712;SDS011;4895;50.926;6.870;2023-03-14T08:52:29;1.77;;;0.83;;
9712;SDS011;4895;50.926;6.870;2023-03-14T08:54:55;2.63;;;0.90;;
9712;SDS011;4895;50.926;6.870;2023-03-14T08:57:21;1.30;;;0.70;;
9712;SDS011;4895;50.926;6.870;2023-03-14T08:59:46;2.53;;;1.03;;
9712;SDS011;4895;50.926;6.870;2023-03-14T09:02:12;1.30;;;0.80;;
9712;SDS011;4895;50.926;6.870;2023-03-14T09:04:37;1.30;;;0.80;;
9712;SDS011;4895;50.926;6.870;2023-03-14T09:07:03;1.60;;;0.90;;
9712;SDS011;4895;50.926;6.870;2023-03-14T09:09:28;2.23;;;1.00;;
9712;SDS011;4895;50.926;6.870;2023-03-14T09:11:55;1.30;;;0.90;;
9712;SDS011;4895;50.926;6.870;2023-03-14T09:14:20;2.00;;;0.80;;
9712;SDS011;4895;50.926;6.870;2023-03-14T09:16:46;3.00;;;0.83;;
9712;SDS011;4895;50.926;6.870;2023-03-14T09:19:11;2.00;;;1.00;;
9712;SDS011;4895;50.926;6.870;2023-03-14T09:21:36;3.73;;;0.90;;
9712;SDS011;4895;50.926;6.870;2023-03-14T09:24:03;2.70;;;1.17;;
9712;SDS011;4895;50.926;6.870;2023-03-14T09:26:29;4.27;;;1.20;;
9712;SDS011;4895;50.926;6.870;2023-03-14T09:28:54;3.10;;;1.00;;
9712;SDS011;4895;50.926;6.870;2023-03-14T09:31:19;1.97;;;0.90;;
9712;SDS011;4895;50.926;6.870;2023-03-14T09:33:44;2.70;;;1.07;;
9712;SDS011;4895;50.926;6.870;2023-03-14T09:36:10;3.87;;;1.20;;
9712;SDS011;4895;50.926;6.870;2023-03-14T09:38:35;1.40;;;0.90;;
9712;SDS011;4895;50.926;6.870;2023-03-14T09:41:01;2.40;;;0.93;;
9712;SDS011;4895;50.926;6.870;2023-03-14T09:43:29;2.20;;;1.17;;
9712;SDS011;4895;50.926;6.870;2023-03-14T09:45:55;3.27;;;0.90;;
9712;SDS011;4895;50.926;6.870;2023-03-14T09:48:24;1.27;;;0.87;;
9712;SDS011;4895;50.926;6.870;2023-03-14T09:50:53;1.30;;;0.90;;
9712;SDS011;4895;50.926;6.870;2023-03-14T09:53:20;1.50;;;0.90;;
9712;SDS011;4895;50.926;6.870;2023-03-14T09:55:50;1.30;;;0.90;;
9712;SDS011;4895;50.926;6.870;2023-03-14T09:58:19;1.20;;;0.70;;
9712;SDS011;4895;50.926;6.870;2023-03-14T10:00:46;2.70;;;1.10;;
9712;SDS011;4895;50.926;6.870;2023-03-14T10:05:37;2.77;;;1.37;;
9712;SDS011;4895;50.926;6.870;2023-03-14T10:08:04;1.87;;;1.50;;
9712;SDS011;4895;50.926;6.870;2023-03-14T10:10:29;3.40;;;1.60;;
9712;SDS011;4895;50.926;6.870;2023-03-14T10:15:36;2.37;;;1.73;;
9712;SDS011;4895;50.926;6.870;2023-03-14T10:18:02;2.87;;;2.20;;
9712;SDS011;4895;50.926;6.870;2023-03-14T10:20:41;3.07;;;1.60;;
9712;SDS011;4895;50.926;6.870;2023-03-14T10:25:37;2.10;;;1.33;;
9712;SDS011;4895;50.926;6.870;2023-03-14T10:28:04;2.00;;;1.80;;
9712;SDS011;4895;50.926;6.870;2023-03-14T10:33:10;3.07;;;1.50;;
9712;SDS011;4895;50.926;6.870;2023-03-14T10:35:46;3.00;;;1.67;;
9712;SDS011;4895;50.926;6.870;2023-03-14T10:38:22;3.30;;;1.70;;
9712;SDS011;4895;50.926;6.870;2023-03-14T10:40:49;2.70;;;1.90;;
9712;SDS011;4895;50.926;6.870;2023-03-14T10:43:18;3.23;;;1.90;;
9712;SDS011;4895;50.926;6.870;2023-03-14T10:45:51;2.47;;;1.80;;
9712;SDS011;4895;50.926;6.870;2023-03-14T10:48:19;2.43;;;1.90;;
9712;SDS011;4895;50.926;6.870;2023-03-14T10:53:23;3.80;;;2.27;;
9712;SDS011;4895;50.926;6.870;2023-03-14T10:55:48;4.17;;;2.13;;
9712;SDS011;4895;50.926;6.870;2023-03-14T10:58:27;2.87;;;2.30;;
9712;SDS011;4895;50.926;6.870;2023-03-14T11:00:57;7.37;;;2.00;;
9712;SDS011;4895;50.926;6.870;2023-03-14T11:03:28;4.90;;;2.00;;
9712;SDS011;4895;50.926;6.870;2023-03-14T11:05:57;3.53;;;2.10;;
9712;SDS011;4895;50.926;6.870;2023-03-14T11:10:54;3.70;;;2.10;;
9712;SDS011;4895;50.926;6.870;2023-03-14T11:13:37;6.03;;;2.20;;
9712;SDS011;4895;50.926;6.870;2023-03-14T11:16:14;4.97;;;2.43;;
9712;SDS011;4895;50.926;6.870;2023-03-14T11:19:03;3.53;;;1.67;;
9712;SDS011;4895;50.926;6.870;2023-03-14T11:21:37;3.50;;;1.70;;
9712;SDS011;4895;50.926;6.870;2023-03-14T11:30:13;2.47;;;1.67;;
9712;SDS011;4895;50.926;6.870;2023-03-14T11:35:16;3.30;;;1.80;;
9712;SDS011;4895;50.926;6.870;2023-03-14T11:38:03;4.70;;;2.37;;
9712;SDS011;4895;50.926;6.870;2023-03-14T11:40:36;4.47;;;2.23;;
9712;SDS011;4895;50.926;6.870;2023-03-14T11:43:06;3.63;;;2.20;;
9712;SDS011;4895;50.926;6.870;2023-03-14T11:45:38;4.23;;;1.30;;
9712;SDS011;4895;50.926;6.870;2023-03-14T11:50:59;1.93;;;0.83;;
9712;SDS011;4895;50.926;6.870;2023-03-14T11:55:58;2.97;;;1.07;;
9712;SDS011;4895;50.926;6.870;2023-03-14T11:58:31;2.37;;;1.07;;
9712;SDS011;4895;50.926;6.870;2023-03-14T12:01:03;1.67;;;1.00;;
9712;SDS011;4895;50.926;6.870;2023-03-14T12:03:42;1.77;;;0.90;;
9712;SDS011;4895;50.926;6.870;2023-03-14T12:06:21;1.90;;;1.10;;
9712;SDS011;4895;50.926;6.870;2023-03-14T12:08:56;3.20;;;1.10;;
9712;SDS011;4895;50.926;6.870;2023-03-14T12:19:46;5.73;;;1.40;;
9712;SDS011;4895;50.926;6.870;2023-03-14T12:24:55;3.80;;;1.60;;
9712;SDS011;4895;50.926;6.870;2023-03-14T12:30:30;2.03;;;1.40;;
9712;SDS011;4895;50.926;6.870;2023-03-14T12:33:11;4.37;;;1.40;;
9712;SDS011;4895;50.926;6.870;2023-03-14T12:35:37;2.90;;;1.10;;
9712;SDS011;4895;50.926;6.870;2023-03-14T12:38:12;2.73;;;1.37;;
9712;SDS011;4895;50.926;6.870;2023-03-14T12:40:41;3.40;;;1.30;;
9712;SDS011;4895;50.926;6.870;2023-03-14T12:43:26;5.83;;;1.23;;
9712;SDS011;4895;50.926;6.870;2023-03-14T12:46:15;4.63;;;1.40;;
9712;SDS011;4895;50.926;6.870;2023-03-14T12:49:15;3.57;;;1.37;;
9712;SDS011;4895;50.926;6.870;2023-03-14T12:51:37;4.03;;;1.27;;
9712;SDS011;4895;50.926;6.870;2023-03-14T12:59:37;9.73;;;1.50;;
9712;SDS011;4895;50.926;6.870;2023-03-14T13:04:35;3.20;;;1.30;;
9712;SDS011;4895;50.926;6.870;2023-03-14T13:17:56;4.40;;;1.00;;
9712;SDS011;4895;50.926;6.870;2023-03-14T13:20:28;2.97;;;1.10;;
9712;SDS011;4895;50.926;6.870;2023-03-14T13:22:55;6.60;;;1.40;;
9712;SDS011;4895;50.926;6.870;2023-03-14T13:25:21;2.50;;;1.40;;
9712;SDS011;4895;50.926;6.870;2023-03-14T13:27:47;6.83;;;1.70;;
9712;SDS011;4895;50.926;6.870;2023-03-14T13:30:20;6.53;;;1.30;;
9712;SDS011;4895;50.926;6.870;2023-03-14T13:32:51;13.10;;;1.47;;
9712;SDS011;4895;50.926;6.870;2023-03-14T13:35:26;8.07;;;1.43;;
9712;SDS011;4895;50.926;6.870;2023-03-14T13:37:54;9.07;;;1.47;;
9712;SDS011;4895;50.926;6.870;2023-03-14T13:40:24;3.83;;;1.17;;
9712;SDS011;4895;50.926;6.870;2023-03-14T13:43:52;6.50;;;1.43;;
9712;SDS011;4895;50.926;6.870;2023-03-14T13:45:51;6.43;;;1.40;;
9712;SDS011;4895;50.926;6.870;2023-03-14T13:48:21;12.93;;;1.63;;
9712;SDS011;4895;50.926;6.870;2023-03-14T13:50:51;8.80;;;1.70;;
9712;SDS011;4895;50.926;6.870;2023-03-14T13:53:18;11.50;;;1.87;;
9712;SDS011;4895;50.926;6.870;2023-03-14T13:55:43;8.70;;;2.03;;
9712;SDS011;4895;50.926;6.870;2023-03-14T13:58:11;13.17;;;2.33;;
9712;SDS011;4895;50.926;6.870;2023-03-14T14:00:55;8.20;;;2.50;;
9712;SDS011;4895;50.926;6.870;2023-03-14T14:03:24;12.00;;;1.97;;
9712;SDS011;4895;50.926;6.870;2023-03-14T14:05:49;26.70;;;3.20;;
9712;SDS011;4895;50.926;6.870;2023-03-14T14:08:15;12.43;;;2.60;;
9712;SDS011;4895;50.926;6.870;2023-03-14T14:10:40;18.80;;;2.70;;
9712;SDS011;4895;50.926;6.870;2023-03-14T14:13:06;15.47;;;3.47;;
9712;SDS011;4895;50.926;6.870;2023-03-14T14:15:37;19.73;;;2.20;;
9712;SDS011;4895;50.926;6.870;2023-03-14T14:18:07;17.33;;;2.23;;
9712;SDS011;4895;50.926;6.870;2023-03-14T14:23:09;15.23;;;3.13;;
9712;SDS011;4895;50.926;6.870;2023-03-14T14:25:36;20.33;;;2.93;;
9712;SDS011;4895;50.926;6.870;2023-03-14T14:28:14;17.40;;;3.20;;
9712;SDS011;4895;50.926;6.870;2023-03-14T14:33:26;14.73;;;3.37;;
9712;SDS011;4895;50.926;6.870;2023-03-14T14:35:57;13.40;;;2.90;;
9712;SDS011;4895;50.926;6.870;2023-03-14T14:38:24;15.07;;;2.47;;
9712;SDS011;4895;50.926;6.870;2023-03-14T14:40:54;13.20;;;2.83;;
9712;SDS011;4895;50.926;6.870;2023-03-14T14:43:24;12.93;;;2.93;;
9712;SDS011;4895;50.926;6.870;2023-03-14T14:45:52;14.30;;;2.40;;
9712;SDS011;4895;50.926;6.870;2023-03-14T14:48:22;12.83;;;2.93;;
9712;SDS011;4895;50.926;6.870;2023-03-14T14:56:19;12.40;;;2.60;;
9712;SDS011;4895;50.926;6.870;2023-03-14T14:58:47;10.60;;;2.73;;
9712;SDS011;4895;50.926;6.870;2023-03-14T15:03:46;21.90;;;2.60;;
9712;SDS011;4895;50.926;6.870;2023-03-14T15:06:14;17.33;;;2.50;;
9712;SDS011;4895;50.926;6.870;2023-03-14T15:08:40;21.13;;;3.37;;
9712;SDS011;4895;50.926;6.870;2023-03-14T15:11:05;15.10;;;2.83;;
9712;SDS011;4895;50.926;6.870;2023-03-14T15:13:31;18.13;;;2.83;;
9712;SDS011;4895;50.926;6.870;2023-03-14T15:15:56;17.27;;;2.83;;
9712;SDS011;4895;50.926;6.870;2023-03-14T15:18:23;22.97;;;3.67;;
9712;SDS011;4895;50.926;6.870;2023-03-14T15:20:49;18.90;;;3.07;;
9712;SDS011;4895;50.926;6.870;2023-03-14T15:23:17;18.77;;;2.80;;
9712;SDS011;4895;50.926;6.870;2023-03-14T15:25:44;15.90;;;3.63;;
9712;SDS011;4895;50.926;6.870;2023-03-14T15:30:48;13.73;;;3.10;;
9712;SDS011;4895;50.926;6.870;2023-03-14T15:33:14;12.17;;;3.10;;
9712;SDS011;4895;50.926;6.870;2023-03-14T15:35:40;17.23;;;3.77;;
9712;SDS011;4895;50.926;6.870;2023-03-14T15:38:09;16.00;;;2.70;;
9712;SDS011;4895;50.926;6.870;2023-03-14T15:40:35;16.37;;;3.07;;
9712;SDS011;4895;50.926;6.870;2023-03-14T15:43:01;18.23;;;3.10;;
9712;SDS011;4895;50.926;6.870;2023-03-14T15:45:26;15.13;;;3.23;;
9712;SDS011;4895;50.926;6.870;2023-03-14T15:47:51;22.47;;;3.10;;
9712;SDS011;4895;50.926;6.870;2023-03-14T15:50:16;18.83;;;2.77;;
9712;SDS011;4895;50.926;6.870;2023-03-14T15:52:43;16.23;;;2.87;;
9712;SDS011;4895;50.926;6.870;2023-03-14T15:55:09;21.53;;;2.73;;
9712;SDS011;4895;50.926;6.870;2023-03-14T15:57:34;14.00;;;2.60;;
9712;SDS011;4895;50.926;6.870;2023-03-14T15:59:59;13.63;;;2.73;;
9712;SDS011;4895;50.926;6.870;2023-03-14T16:02:25;14.67;;;2.50;;
9712;SDS011;4895;50.926;6.870;2023-03-14T16:04:50;17.23;;;3.37;;
9712;SDS011;4895;50.926;6.870;2023-03-14T16:07:16;15.87;;;3.40;;
9712;SDS011;4895;50.926;6.870;2023-03-14T16:09:41;16.77;;;2.87;;
9712;SDS011;4895;50.926;6.870;2023-03-14T16:12:06;17.07;;;3.37;;
9712;SDS011;4895;50.926;6.870;2023-03-14T16:14:33;19.53;;;3.33;;
9712;SDS011;4895;50.926;6.870;2023-03-14T16:16:58;15.70;;;3.30;;
9712;SDS011;4895;50.926;6.870;2023-03-14T16:19:24;16.53;;;2.63;;
9712;SDS011;4895;50.926;6.870;2023-03-14T16:21:51;24.03;;;3.87;;
9712;SDS011;4895;50.926;6.870;2023-03-14T16:24:16;21.70;;;2.60;;
9712;SDS011;4895;50.926;6.870;2023-03-14T16:26:42;15.53;;;3.90;;
9712;SDS011;4895;50.926;6.870;2023-03-14T16:29:08;21.33;;;3.23;;
9712;SDS011;4895;50.926;6.870;2023-03-14T16:31:34;16.57;;;2.50;;
9712;SDS011;4895;50.926;6.870;2023-03-14T16:34:02;13.03;;;3.23;;
9712;SDS011;4895;50.926;6.870;2023-03-14T16:36:28;18.77;;;2.90;;
9712;SDS011;4895;50.926;6.870;2023-03-14T16:38:53;11.80;;;2.80;;
9712;SDS011;4895;50.926;6.870;2023-03-14T16:41:19;17.13;;;2.63;;
9712;SDS011;4895;50.926;6.870;2023-03-14T16:43:44;22.37;;;3.20;;